Time;durP1;ratioP1;P1;durP2;ratioP2;P2;SDS_P1;SDS_P2;PMS_P1;PMS_P2;Temp;Humidity;BMP_temperature;BMP_pressure;BME280_temperature;BME280_humidity;BME280_pressure;Samples;Min_cycle;Max_cycle;Signal;HPM_P1;HPM_P2
2022/12/06 00:01:37;;;;;;;12.53;3.93;;;5.60;94.70;;;;;;5071145;28;20394;-91
2022/12/06 00:04:06;;;;;;;11.43;4.15;;;5.60;94.70;;;;;;5071320;28;20413;-93
2022/12/06 00:06:36;;;;;;;7.28;2.70;;;5.60;94.70;;;;;;5071321;28;20413;-92
2022/12/06 00:09:02;;;;;;;10.35;3.85;;;5.50;94.60;;;;;;5070554;28;20398;-90
2022/12/06 00:11:30;;;;;;;12.48;3.70;;;5.50;94.80;;;;;;5071995;28;20405;-90
2022/12/06 00:13:58;;;;;;;11.75;3.17;;;5.50;94.80;;;;;;5070859;28;20413;-92
2022/12/06 00:16:25;;;;;;;7.32;2.35;;;5.50;94.80;;;;;;5071899;28;21022;-92
2022/12/06 00:18:51;;;;;;;7.37;1.77;;;5.50;94.70;;;;;;5070648;28;20394;-91
2022/12/06 00:21:30;;;;;;;7.22;1.80;;;5.50;94.60;;;;;;5071453;28;20444;-90
2022/12/06 00:24:16;;;;;;;8.23;2.75;;;5.40;94.80;;;;;;5088088;28;20410;-92
2022/12/06 00:26:44;;;;;;;4.68;1.50;;;5.50;94.70;;;;;;5070300;28;20421;-91
2022/12/06 00:29:12;;;;;;;5.97;1.30;;;5.50;94.70;;;;;;5071211;28;20406;-91
2022/12/06 00:31:38;;;;;;;4.70;1.33;;;5.50;94.80;;;;;;5070257;28;20410;-89
2022/12/06 00:34:04;;;;;;;4.50;1.20;;;5.50;94.60;;;;;;5071114;28;20489;-92
2022/12/06 00:36:32;;;;;;;6.50;1.53;;;5.40;94.50;;;;;;5070571;28;20406;-91
2022/12/06 00:39:03;;;;;;;4.88;1.27;;;5.40;94.60;;;;;;5087930;28;20436;-92
2022/12/06 00:41:29;;;;;;;5.97;1.27;;;5.40;94.60;;;;;;5071103;28;20908;-92
2022/12/06 00:43:55;;;;;;;5.45;1.30;;;5.40;94.60;;;;;;5070022;28;20433;-91
2022/12/06 00:46:23;;;;;;;5.65;1.38;;;5.40;94.70;;;;;;5071015;28;20467;-92
2022/12/06 00:48:50;;;;;;;3.90;0.80;;;5.40;94.60;;;;;;5069632;28;20402;-90
2022/12/06 00:51:18;;;;;;;3.40;1.00;;;5.20;94.40;;;;;;5071108;28;20410;-91
2022/12/06 00:53:44;;;;;;;5.07;0.82;;;5.40;94.50;;;;;;5087335;28;20426;-89
2022/12/06 00:56:10;;;;;;;5.90;1.02;;;5.30;94.50;;;;;;5087419;28;20394;-92
2022/12/06 00:58:36;;;;;;;4.43;1.00;;;5.40;94.40;;;;;;5070708;28;20908;-92
2022/12/06 01:01:09;;;;;;;3.47;1.30;;;5.40;94.50;;;;;;5069687;28;20440;-92
2022/12/06 01:03:35;;;;;;;4.30;1.07;;;5.40;94.30;;;;;;5070725;28;21013;-93
2022/12/06 01:06:04;;;;;;;6.00;1.20;;;5.40;94.30;;;;;;5069823;28;20402;-91
2022/12/06 01:08:30;;;;;;;3.97;1.00;;;5.30;94.40;;;;;;5070062;28;20939;-92
2022/12/06 01:10:56;;;;;;;3.72;0.68;;;5.50;94.40;;;;;;5071295;28;20414;-91
2022/12/06 01:13:22;;;;;;;5.10;0.98;;;5.20;94.30;;;;;;5070168;28;20406;-92
2022/12/06 01:15:48;;;;;;;5.40;0.73;;;5.50;94.50;;;;;;5070072;28;20403;-92
2022/12/06 01:18:14;;;;;;;2.95;0.70;;;5.30;94.70;;;;;;5069611;28;20568;-92
2022/12/06 01:20:39;;;;;;;3.80;1.10;;;5.30;94.30;;;;;;5071151;28;20430;-92
2022/12/06 01:23:05;;;;;;;3.33;0.60;;;5.30;94.50;;;;;;5069291;28;20441;-92
2022/12/06 01:25:31;;;;;;;2.78;0.88;;;5.30;94.40;;;;;;5070497;28;20421;-92
2022/12/06 01:27:58;;;;;;;3.72;0.80;;;5.30;94.50;;;;;;5069117;28;20429;-92
2022/12/06 01:30:24;;;;;;;3.47;1.10;;;5.20;94.30;;;;;;5070325;28;20386;-92
2022/12/06 01:32:50;;;;;;;4.78;0.90;;;5.40;94.50;;;;;;5069529;28;20815;-91
2022/12/06 01:35:16;;;;;;;4.30;1.10;;;5.20;94.40;;;;;;5069347;28;20414;-92
2022/12/06 01:37:42;;;;;;;5.13;1.10;;;5.30;94.50;;;;;;5069962;28;20414;-92
2022/12/06 01:40:08;;;;;;;5.82;1.45;;;5.30;94.50;;;;;;5068710;28;20394;-91
2022/12/06 01:42:34;;;;;;;5.45;1.40;;;5.30;94.40;;;;;;5069979;28;20430;-91
2022/12/06 01:45:00;;;;;;;4.83;1.20;;;5.60;94.60;;;;;;5068831;28;20908;-92
2022/12/06 01:47:40;;;;;;;5.57;1.80;;;5.30;94.50;;;;;;5069850;28;20754;-90
2022/12/06 01:50:10;;;;;;;7.20;1.63;;;5.20;94.60;;;;;;5069559;28;20406;-91
2022/12/06 01:53:01;;;;;;;5.68;1.98;;;5.30;94.70;;;;;;5086580;28;20409;-93
2022/12/06 01:55:31;;;;;;;6.50;2.30;;;5.30;94.70;;;;;;5062813;28;20470;-91
2022/12/06 01:58:01;;;;;;;7.55;1.88;;;5.30;94.60;;;;;;5068426;28;20409;-90
2022/12/06 02:00:27;;;;;;;5.68;1.73;;;5.30;94.70;;;;;;5070164;28;20866;-93
2022/12/06 02:02:56;;;;;;;4.78;1.63;;;5.40;94.50;;;;;;5068665;28;20953;-93
2022/12/06 02:05:24;;;;;;;9.23;1.92;;;5.30;94.60;;;;;;5086273;28;20485;-91
2022/12/06 02:07:51;;;;;;;5.57;1.60;;;5.30;94.60;;;;;;5086675;28;21054;-92
2022/12/06 02:10:17;;;;;;;4.80;1.70;;;5.30;94.70;;;;;;5068047;28;20417;-91
2022/12/06 02:12:43;;;;;;;7.35;1.73;;;5.30;94.70;;;;;;5069635;28;21011;-93
2022/12/06 02:15:10;;;;;;;7.25;1.88;;;5.30;94.80;;;;;;5068234;28;20493;-90
2022/12/06 02:17:57;;;;;;;7.53;2.00;;;5.30;94.70;;;;;;5069836;28;21000;-92
2022/12/06 02:20:35;;;;;;;8.00;2.47;;;5.30;94.70;;;;;;5068128;28;20432;-92
2022/12/06 02:23:29;;;;;;;9.23;2.40;;;5.30;94.90;;;;;;5068258;28;20945;-92
2022/12/06 02:26:23;;;;;;;5.93;2.10;;;5.40;94.90;;;;;;5086377;28;20823;-92
2022/12/06 02:29:01;;;;;;;8.52;2.63;;;5.30;94.80;;;;;;5068347;28;20414;-91
2022/12/06 02:31:50;;;;;;;6.97;2.08;;;5.30;94.70;;;;;;5085561;28;20493;-92
2022/12/06 02:34:50;;;;;;;8.55;2.67;;;5.30;94.70;;;;;;5086008;28;20435;-92
2022/12/06 02:37:31;;;;;;;9.20;2.88;;;5.40;94.90;;;;;;5067952;28;20406;-91
2022/12/06 02:39:57;;;;;;;8.70;3.30;;;5.30;94.80;;;;;;5068557;28;20413;-93
2022/12/06 02:42:28;;;;;;;8.45;3.15;;;5.40;94.80;;;;;;5085476;28;20430;-91
2022/12/06 02:44:57;;;;;;;8.55;3.00;;;5.40;95.00;;;;;;5084318;28;20406;-91
2022/12/06 02:47:29;;;;;;;9.48;3.25;;;5.30;94.60;;;;;;5069241;28;20398;-92
2022/12/06 02:49:58;;;;;;;7.88;2.80;;;5.40;94.60;;;;;;5067269;28;20421;-91
2022/12/06 02:52:26;;;;;;;9.60;3.05;;;5.30;94.50;;;;;;5068552;28;20480;-91
2022/12/06 02:54:55;;;;;;;8.02;3.22;;;5.30;94.80;;;;;;5067575;28;20438;-93
2022/12/06 02:57:39;;;;;;;8.48;3.60;;;5.20;94.50;;;;;;5068131;28;20402;-91
2022/12/06 03:00:37;;;;;;;13.88;4.57;;;5.10;94.40;;;;;;5085471;28;20414;-91
2022/12/06 03:03:28;;;;;;;8.77;3.80;;;5.10;94.40;;;;;;5067317;28;20430;-91
2022/12/06 03:06:00;;;;;;;12.15;4.18;;;5.00;94.50;;;;;;5085509;28;20429;-92
2022/12/06 03:08:44;;;;;;;11.25;4.13;;;5.00;94.60;;;;;;5084863;28;20911;-91
2022/12/06 03:11:11;;;;;;;14.53;4.17;;;4.90;94.50;;;;;;5081714;28;20489;-92
2022/12/06 03:14:04;;;;;;;9.45;3.95;;;4.80;94.40;;;;;;5068149;28;20448;-91
2022/12/06 03:16:54;;;;;;;9.40;3.97;;;4.80;94.50;;;;;;5067507;28;20501;-92
2022/12/06 03:19:26;;;;;;;9.30;4.35;;;5.10;94.60;;;;;;5067373;28;20402;-92
2022/12/06 03:22:28;;;;;;;12.02;4.35;;;4.70;94.60;;;;;;5068314;28;20483;-91
2022/12/06 03:24:54;;;;;;;14.38;4.45;;;4.70;94.70;;;;;;5048285;28;20501;-91
2022/12/06 03:27:22;;;;;;;18.83;4.78;;;4.70;94.70;;;;;;5068266;28;20492;-92
2022/12/06 03:29:56;;;;;;;19.25;5.40;;;4.60;94.60;;;;;;5067553;28;20433;-92
2022/12/06 03:32:30;;;;;;;22.77;5.50;;;4.70;94.90;;;;;;5066678;28;20406;-91
2022/12/06 03:35:00;;;;;;;12.45;4.72;;;4.70;94.90;;;;;;5068575;28;20398;-91
2022/12/06 03:37:31;;;;;;;11.52;4.72;;;4.70;95.00;;;;;;5067448;28;20780;-93
2022/12/06 03:40:32;;;;;;;10.48;4.60;;;4.90;95.20;;;;;;5068501;28;20398;-92
2022/12/06 03:42:59;;;;;;;11.50;4.88;;;4.70;95.10;;;;;;5054400;28;20459;-92
2022/12/06 03:45:32;;;;;;;13.45;4.88;;;4.70;95.10;;;;;;5083874;28;20390;-91
2022/12/06 03:48:03;;;;;;;12.60;5.13;;;4.90;95.10;;;;;;5068055;28;20449;-91
2022/12/06 03:50:34;;;;;;;11.15;4.93;;;4.70;95.00;;;;;;5067332;28;20425;-92
2022/12/06 03:53:01;;;;;;;12.23;5.68;;;4.90;94.80;;;;;;5068275;28;20413;-93
2022/12/06 03:55:26;;;;;;;15.68;5.63;;;4.70;94.90;;;;;;5066765;28;20414;-93
2022/12/06 03:57:52;;;;;;;15.20;6.00;;;4.70;94.90;;;;;;5067945;28;20393;-91
2022/12/06 04:00:18;;;;;;;15.63;6.80;;;4.70;95.30;;;;;;5068153;28;20788;-92
2022/12/06 04:02:44;;;;;;;17.10;6.70;;;4.70;95.50;;;;;;5066623;28;20438;-93
2022/12/06 04:05:10;;;;;;;11.90;5.73;;;4.70;95.30;;;;;;5067974;28;20394;-92
2022/12/06 04:07:35;;;;;;;15.20;6.20;;;4.70;95.20;;;;;;5066492;28;20863;-93
2022/12/06 04:10:02;;;;;;;14.50;6.40;;;4.70;95.20;;;;;;5084637;28;20455;-91
2022/12/06 04:15:17;;;;;;;18.60;7.27;;;4.80;95.30;;;;;;5084544;28;20773;-92
2022/12/06 04:20:28;;;;;;;14.82;6.72;;;5.00;95.40;;;;;;5083526;28;20402;-92
2022/12/06 04:23:04;;;;;;;15.20;6.78;;;4.90;95.30;;;;;;5083927;28;20428;-92
2022/12/06 04:25:35;;;;;;;14.90;6.53;;;4.90;95.20;;;;;;5065789;28;20391;-91
2022/12/06 04:39:25;;;;;;;11.85;6.10;;;4.90;95.20;;;;;;5103673;28;20432;-92
2022/12/06 04:44:35;;;;;;;18.63;7.72;;;4.90;95.40;;;;;;5107249;28;20890;-93
2022/12/06 04:47:00;;;;;;;10.77;4.80;;;4.90;95.50;;;;;;5090668;28;20419;-93
2022/12/06 04:49:26;;;;;;;12.35;6.13;;;4.90;95.40;;;;;;5090280;28;20404;-91
2022/12/06 04:51:53;;;;;;;18.77;7.20;;;4.80;95.40;;;;;;5089506;28;20886;-94
2022/12/06 04:54:20;;;;;;;12.30;5.50;;;5.30;95.50;;;;;;5089958;28;20484;-93
2022/12/06 04:56:46;;;;;;;13.93;5.57;;;4.90;95.40;;;;;;5089667;28;20874;-95
2022/12/06 04:59:12;;;;;;;12.45;5.57;;;4.80;95.30;;;;;;5088821;28;20458;-91
2022/12/06 05:01:37;;;;;;;15.73;5.68;;;4.90;95.10;;;;;;5090107;28;20408;-93
2022/12/06 05:04:03;;;;;;;14.67;5.63;;;4.70;94.90;;;;;;5088600;28;20503;-94
2022/12/06 05:06:29;;;;;;;26.60;6.97;;;4.70;94.70;;;;;;5090212;28;20890;-92
2022/12/06 05:08:55;;;;;;;15.45;6.57;;;4.60;94.70;;;;;;5089321;28;20801;-93
2022/12/06 05:11:21;;;;;;;13.48;5.45;;;4.50;94.80;;;;;;5090058;28;20748;-92
2022/12/06 05:13:46;;;;;;;18.75;4.65;;;4.70;95.00;;;;;;5089292;28;20421;-92
2022/12/06 05:16:12;;;;;;;12.90;4.63;;;4.50;94.90;;;;;;5089341;28;20404;-94
2022/12/06 05:18:38;;;;;;;13.90;5.63;;;4.30;94.90;;;;;;5089765;28;20415;-92
2022/12/06 05:21:11;;;;;;;11.98;5.70;;;4.40;95.10;;;;;;5089290;28;20404;-93
2022/12/06 05:23:37;;;;;;;14.10;5.38;;;4.30;95.10;;;;;;5089918;28;20416;-92
2022/12/06 05:26:06;;;;;;;9.43;4.53;;;4.30;95.50;;;;;;5088198;28;20604;-92
2022/12/06 05:28:33;;;;;;;9.02;3.95;;;4.20;95.00;;;;;;5090093;28;20412;-93
2022/12/06 05:30:59;;;;;;;10.85;3.95;;;4.50;95.00;;;;;;5088463;28;20462;-92
2022/12/06 05:33:24;;;;;;;12.77;4.57;;;4.20;95.00;;;;;;5089149;28;20420;-92
2022/12/06 05:35:52;;;;;;;15.60;4.90;;;4.10;95.00;;;;;;5089151;28;22631;-93
2022/12/06 05:38:19;;;;;;;22.65;6.28;;;4.10;94.90;;;;;;5105419;28;20408;-92
2022/12/06 05:40:45;;;;;;;10.03;3.93;;;4.20;95.00;;;;;;5089694;28;20407;-92
2022/12/06 05:43:11;;;;;;;13.27;4.82;;;4.50;95.10;;;;;;5087963;28;20829;-92
2022/12/06 05:45:37;;;;;;;12.05;4.43;;;4.00;94.80;;;;;;5089380;28;20401;-93
2022/12/06 05:48:04;;;;;;;11.85;4.30;;;3.90;94.80;;;;;;5088325;28;20487;-92
2022/12/06 05:50:30;;;;;;;11.50;4.57;;;3.70;94.80;;;;;;5089555;28;20955;-92
2022/12/06 05:52:57;;;;;;;12.57;4.95;;;3.90;94.80;;;;;;5088431;28;20401;-93
2022/12/06 05:55:24;;;;;;;7.90;3.40;;;3.70;95.00;;;;;;5088785;28;20408;-91
2022/12/06 05:57:50;;;;;;;14.27;4.85;;;3.70;94.80;;;;;;5088478;28;20484;-92
2022/12/06 06:00:16;;;;;;;10.70;3.42;;;3.60;94.90;;;;;;5087745;28;20401;-93
2022/12/06 06:02:42;;;;;;;11.75;3.53;;;3.60;94.70;;;;;;5088519;28;20914;-94
2022/12/06 06:05:08;;;;;;;10.63;3.97;;;3.60;94.70;;;;;;5088235;28;20483;-92
2022/12/06 06:07:34;;;;;;;7.30;3.30;;;3.60;94.70;;;;;;5089109;28;20400;-92
2022/12/06 06:09:59;;;;;;;9.00;3.67;;;3.20;94.70;;;;;;5087783;28;20422;-90
2022/12/06 06:12:25;;;;;;;6.68;2.80;;;3.30;94.70;;;;;;5088918;28;20469;-92
2022/12/06 06:14:52;;;;;;;9.30;2.90;;;3.30;94.70;;;;;;5088928;28;20404;-90
2022/12/06 06:17:18;;;;;;;8.60;2.97;;;3.20;94.90;;;;;;5087187;28;20399;-91
2022/12/06 06:19:44;;;;;;;13.02;5.63;;;3.10;94.70;;;;;;5106063;28;20392;-91
2022/12/06 06:22:09;;;;;;;23.88;5.53;;;2.80;94.90;;;;;;5087758;28;20438;-92
2022/12/06 06:24:40;;;;;;;70.25;4.85;;;3.30;95.10;;;;;;5105970;28;20458;-92
2022/12/06 06:27:06;;;;;;;27.37;3.23;;;2.90;94.90;;;;;;5087770;28;20724;-91
2022/12/06 06:29:32;;;;;;;25.52;3.45;;;2.80;94.70;;;;;;5088765;28;20419;-91
2022/12/06 06:31:58;;;;;;;10.82;3.80;;;2.80;95.10;;;;;;5087222;28;20404;-91
2022/12/06 06:34:26;;;;;;;8.20;4.70;;;2.90;94.90;;;;;;5088313;28;20442;-92
2022/12/06 06:36:52;;;;;;;10.90;5.80;;;2.70;95.10;;;;;;5088760;28;20405;-92
2022/12/06 06:39:18;;;;;;;11.10;4.83;;;2.70;95.20;;;;;;5086995;28;20921;-92
2022/12/06 06:41:45;;;;;;;11.07;4.90;;;2.70;95.20;;;;;;5088425;28;20408;-92
2022/12/06 06:44:11;;;;;;;12.82;5.88;;;2.90;95.60;;;;;;5086599;28;20403;-91
2022/12/06 06:46:36;;;;;;;9.80;5.03;;;2.70;95.70;;;;;;5088509;28;20401;-92
2022/12/06 06:49:02;;;;;;;9.02;4.43;;;2.90;96.00;;;;;;5088002;28;20403;-92
2022/12/06 06:51:30;;;;;;;8.27;4.05;;;3.00;95.70;;;;;;5088666;28;20972;-91
2022/12/06 06:53:56;;;;;;;11.07;5.32;;;2.80;95.50;;;;;;5088209;28;20487;-90
2022/12/06 06:56:22;;;;;;;14.57;6.25;;;2.80;95.40;;;;;;5087504;28;20823;-90
2022/12/06 06:58:47;;;;;;;10.60;5.90;;;2.80;95.60;;;;;;5088975;28;20400;-91
2022/12/06 07:01:16;;;;;;;16.37;6.83;;;2.80;95.80;;;;;;5086814;28;20938;-91
2022/12/06 07:03:42;;;;;;;14.43;6.00;;;2.90;95.90;;;;;;5088670;28;20996;-91
2022/12/06 07:06:09;;;;;;;11.10;5.33;;;2.80;95.80;;;;;;5087358;28;20743;-92
2022/12/06 07:08:36;;;;;;;8.88;4.63;;;2.80;95.70;;;;;;5088522;28;20412;-91
2022/12/06 07:11:02;;;;;;;9.43;4.50;;;2.80;95.60;;;;;;5087236;28;20483;-91
2022/12/06 07:13:28;;;;;;;7.85;4.38;;;2.80;95.50;;;;;;5087671;28;20483;-91
2022/12/06 07:15:54;;;;;;;16.73;6.03;;;2.90;95.70;;;;;;5088753;28;20422;-92
2022/12/06 07:18:21;;;;;;;13.40;6.20;;;2.80;95.90;;;;;;5087137;28;20483;-91
2022/12/06 07:20:47;;;;;;;12.20;5.60;;;2.90;96.00;;;;;;5088797;28;20404;-91
2022/12/06 07:23:14;;;;;;;11.73;5.95;;;3.00;96.00;;;;;;5087083;28;20412;-90
2022/12/06 07:25:40;;;;;;;13.23;6.37;;;2.90;95.80;;;;;;5087786;28;20396;-91
2022/12/06 07:28:06;;;;;;;20.13;7.57;;;2.90;95.50;;;;;;5086776;28;20411;-91
2022/12/06 07:30:32;;;;;;;10.17;5.63;;;2.90;95.40;;;;;;5084778;28;20422;-92
2022/12/06 07:32:58;;;;;;;13.73;6.63;;;3.00;95.40;;;;;;5067604;28;20410;-91
2022/12/06 07:35:24;;;;;;;10.10;5.35;;;2.80;95.70;;;;;;5078063;28;20415;-92
2022/12/06 07:37:50;;;;;;;11.73;5.70;;;2.80;95.70;;;;;;5067629;28;20398;-91
2022/12/06 07:40:17;;;;;;;13.85;6.72;;;2.80;95.50;;;;;;5065859;28;20440;-90
2022/12/06 07:45:27;;;;;;;14.17;6.53;;;2.90;95.80;;;;;;5083448;28;20408;-92
2022/12/06 07:47:52;;;;;;;10.50;5.97;;;3.30;95.80;;;;;;5067253;28;20398;-90
2022/12/06 07:50:21;;;;;;;21.30;13.73;;;2.90;95.80;;;;;;5067985;28;20467;-88
2022/12/06 07:52:48;;;;;;;26.27;16.27;;;3.00;95.90;;;;;;5066768;28;20452;-91
2022/12/06 07:55:15;;;;;;;20.67;11.90;;;3.10;95.90;;;;;;5067946;28;20398;-91
2022/12/06 07:57:41;;;;;;;18.92;11.27;;;3.00;95.80;;;;;;5083577;28;20402;-91
2022/12/06 08:00:09;;;;;;;26.98;12.85;;;3.10;95.70;;;;;;5067845;28;20452;-90
2022/12/06 08:02:35;;;;;;;32.42;15.88;;;3.10;95.70;;;;;;5067010;28;20426;-91
2022/12/06 08:05:01;;;;;;;31.92;18.13;;;3.10;95.60;;;;;;5067598;28;20488;-91
2022/12/06 08:07:26;;;;;;;37.03;16.48;;;3.20;95.70;;;;;;5083800;28;20413;-89
2022/12/06 08:09:52;;;;;;;16.13;9.57;;;3.10;95.70;;;;;;5083569;28;20431;-90
2022/12/06 08:12:20;;;;;;;14.20;9.10;;;3.10;95.70;;;;;;5067879;28;20406;-90
2022/12/06 08:14:46;;;;;;;15.65;9.15;;;3.20;95.60;;;;;;5066811;28;20402;-90
2022/12/06 08:17:12;;;;;;;17.67;9.65;;;3.30;95.70;;;;;;5069618;28;20466;-91
2022/12/06 08:19:38;;;;;;;16.75;10.23;;;3.20;95.70;;;;;;5087570;28;20401;-90
2022/12/06 08:22:04;;;;;;;23.98;12.88;;;3.30;95.70;;;;;;5071644;28;20430;-90
2022/12/06 08:24:30;;;;;;;19.88;10.82;;;3.30;96.00;;;;;;5070764;28;20414;-90
2022/12/06 08:26:57;;;;;;;15.95;9.70;;;3.40;96.00;;;;;;5070879;28;20569;-90
2022/12/06 08:29:22;;;;;;;18.33;10.57;;;3.40;96.00;;;;;;5071705;28;20568;-90
2022/12/06 08:31:48;;;;;;;15.70;10.03;;;3.50;95.90;;;;;;5070151;28;20418;-91
2022/12/06 08:34:15;;;;;;;21.80;14.10;;;3.90;96.00;;;;;;5071521;28;20564;-90
2022/12/06 08:36:41;;;;;;;15.18;11.52;;;3.60;95.80;;;;;;5087411;28;20779;-91
2022/12/06 08:39:08;;;;;;;27.52;16.15;;;3.70;96.00;;;;;;5088194;28;20899;-92
2022/12/06 08:44:19;;;;;;;30.20;14.80;;;3.80;96.10;;;;;;5087374;28;20406;-89
2022/12/06 08:46:45;;;;;;;16.70;9.52;;;3.90;96.10;;;;;;5071106;28;20406;-91
2022/12/06 08:49:12;;;;;;;11.40;7.65;;;3.90;96.10;;;;;;5086850;28;20929;-89
2022/12/06 08:51:39;;;;;;;12.32;7.50;;;4.00;95.80;;;;;;5070738;28;20413;-89
2022/12/06 08:54:07;;;;;;;14.27;8.35;;;4.00;95.60;;;;;;5086689;28;20485;-90
2022/12/06 08:56:34;;;;;;;15.93;8.68;;;4.10;95.60;;;;;;5070707;28;20481;-90
2022/12/06 08:59:00;;;;;;;13.93;7.07;;;4.10;95.50;;;;;;5069878;28;20901;-89
2022/12/06 09:01:29;;;;;;;14.83;7.90;;;4.20;95.40;;;;;;5070645;28;20405;-90
2022/12/06 09:03:55;;;;;;;14.68;8.35;;;4.30;95.40;;;;;;5070264;28;20430;-89
2022/12/06 09:06:21;;;;;;;14.60;9.07;;;4.20;95.20;;;;;;5069719;28;20438;-89
2022/12/06 09:08:47;;;;;;;15.77;8.98;;;4.30;95.20;;;;;;5070743;28;20504;-90
2022/12/06 09:11:15;;;;;;;17.95;9.80;;;4.30;95.10;;;;;;5069761;28;20490;-89
2022/12/06 09:13:41;;;;;;;12.90;8.90;;;4.60;95.20;;;;;;5070533;28;20434;-89
2022/12/06 09:16:12;;;;;;;12.15;7.97;;;4.50;94.90;;;;;;5069912;28;20749;-89
2022/12/06 09:18:38;;;;;;;12.45;8.30;;;4.50;95.00;;;;;;5070310;28;20804;-90
2022/12/06 09:21:10;;;;;;;9.45;7.00;;;4.60;95.00;;;;;;5069466;28;20390;-89
2022/12/06 09:23:36;;;;;;;11.65;8.07;;;4.70;95.10;;;;;;5069215;28;20820;-89
2022/12/06 09:26:03;;;;;;;12.10;7.55;;;4.70;95.00;;;;;;5086618;28;20429;-89
2022/12/06 09:28:29;;;;;;;17.75;9.65;;;4.80;94.90;;;;;;5068083;28;20398;-90
2022/12/06 09:30:56;;;;;;;11.20;7.13;;;4.80;94.70;;;;;;5087156;28;20469;-89
2022/12/06 09:33:23;;;;;;;10.20;6.93;;;4.80;94.60;;;;;;5068764;28;20421;-90
2022/12/06 09:35:50;;;;;;;14.00;7.70;;;4.90;94.60;;;;;;5086644;28;20410;-89
2022/12/06 09:38:17;;;;;;;12.52;6.82;;;4.90;94.70;;;;;;5086507;28;20406;-89
2022/12/06 09:40:57;;;;;;;13.55;7.70;;;4.90;94.80;;;;;;5085397;28;20395;-89
2022/12/06 09:43:47;;;;;;;11.38;7.30;;;5.00;94.80;;;;;;5086905;28;20454;-90
2022/12/06 09:46:13;;;;;;;11.90;8.13;;;5.10;94.80;;;;;;5085499;28;20410;-90
2022/12/06 09:48:58;;;;;;;9.60;6.73;;;5.20;94.80;;;;;;5086718;28;20414;-89
2022/12/06 09:51:57;;;;;;;11.25;6.68;;;5.30;94.80;;;;;;5069519;28;20493;-88
2022/12/06 09:54:45;;;;;;;10.63;6.43;;;5.40;94.50;;;;;;5070956;28;20893;-90
2022/12/06 09:57:20;;;;;;;13.45;7.97;;;5.50;94.30;;;;;;5069763;28;20615;-90
2022/12/06 10:00:11;;;;;;;9.30;5.82;;;5.80;94.70;;;;;;5069012;28;20490;-89
2022/12/06 10:02:57;;;;;;;10.23;6.03;;;5.80;94.20;;;;;;5085389;28;20434;-90
2022/12/06 10:05:56;;;;;;;10.85;6.00;;;5.80;94.30;;;;;;5086336;28;20414;-89
2022/12/06 10:08:38;;;;;;;8.27;3.90;;;5.90;94.30;;;;;;5068591;28;20414;-89
2022/12/06 10:11:15;;;;;;;11.20;5.85;;;6.00;94.20;;;;;;5068524;28;20888;-89
2022/12/06 10:13:58;;;;;;;10.35;5.82;;;6.00;94.30;;;;;;5069006;28;20426;-89
2022/12/06 10:16:36;;;;;;;8.20;4.50;;;6.10;94.30;;;;;;5067889;28;20406;-89
2022/12/06 10:19:24;;;;;;;8.60;5.22;;;6.10;94.30;;;;;;5085565;28;20414;-89
2022/12/06 10:22:11;;;;;;;5.82;4.30;;;6.20;94.50;;;;;;5068246;28;20884;-88
2022/12/06 10:24:46;;;;;;;8.88;3.92;;;6.30;94.50;;;;;;5067773;28;20966;-89
2022/12/06 10:27:38;;;;;;;7.68;3.88;;;6.30;94.20;;;;;;5068702;28;20445;-90
2022/12/06 10:30:09;;;;;;;6.47;3.42;;;6.40;94.10;;;;;;5068387;28;20485;-88
2022/12/06 10:32:52;;;;;;;7.20;3.55;;;6.40;93.90;;;;;;5084731;28;20417;-88
2022/12/06 10:35:42;;;;;;;7.93;3.38;;;6.40;93.80;;;;;;5082099;28;20527;-88
2022/12/06 10:38:18;;;;;;;6.43;3.50;;;6.40;93.70;;;;;;5104909;28;20423;-89
2022/12/06 10:41:11;;;;;;;7.32;3.88;;;6.40;93.80;;;;;;5087688;28;20443;-88
2022/12/06 10:43:48;;;;;;;7.77;3.70;;;6.40;93.80;;;;;;5105421;28;20449;-88
2022/12/06 10:49:37;;;;;;;5.78;3.10;;;6.50;93.70;;;;;;5084630;28;20434;-88
2022/12/06 10:52:11;;;;;;;7.28;3.63;;;6.60;93.60;;;;;;5085209;28;20780;-87
2022/12/06 10:54:42;;;;;;;6.77;3.50;;;6.60;93.50;;;;;;5067147;28;20410;-89
2022/12/06 10:57:16;;;;;;;6.38;3.70;;;6.80;93.70;;;;;;5084495;28;20406;-89
2022/12/06 10:59:53;;;;;;;5.30;3.60;;;6.60;93.60;;;;;;5067078;28;20508;-87
2022/12/06 11:02:21;;;;;;;6.88;3.70;;;6.70;93.40;;;;;;5068217;28;20466;-88
2022/12/06 11:04:48;;;;;;;6.28;3.80;;;6.70;93.40;;;;;;5067127;28;20418;-89
2022/12/06 11:07:19;;;;;;;6.68;4.57;;;6.70;93.70;;;;;;5066944;28;20412;-88
2022/12/06 11:09:56;;;;;;;6.53;3.67;;;6.80;93.90;;;;;;5067594;28;20420;-89
2022/12/06 11:12:31;;;;;;;6.57;3.40;;;6.80;93.60;;;;;;5083713;28;21060;-88
2022/12/06 11:15:12;;;;;;;6.72;3.70;;;6.90;93.70;;;;;;5067721;28;20496;-89
2022/12/06 11:17:42;;;;;;;5.28;3.00;;;7.00;93.80;;;;;;5066729;28;20426;-87
2022/12/06 11:20:33;;;;;;;4.85;2.40;;;7.00;93.50;;;;;;5066780;28;21092;-89
2022/12/06 11:23:37;;;;;;;6.65;2.67;;;7.10;93.10;;;;;;5067736;28;20426;-88
2022/12/06 11:26:29;;;;;;;5.13;2.75;;;7.20;93.20;;;;;;5043082;28;20417;-87
2022/12/06 11:29:04;;;;;;;5.07;3.15;;;7.40;93.10;;;;;;5066575;28;20421;-91
2022/12/06 11:31:44;;;;;;;3.22;1.50;;;7.40;93.30;;;;;;5067286;28;20417;-89
2022/12/06 11:34:20;;;;;;;3.40;1.23;;;7.40;92.60;;;;;;5066724;28;20410;-91
2022/12/06 11:36:49;;;;;;;4.53;1.30;;;7.50;92.40;;;;;;5080864;28;20441;-89
2022/12/06 11:39:16;;;;;;;6.45;2.05;;;7.60;92.30;;;;;;5076945;28;20889;-88
2022/12/06 11:41:44;;;;;;;5.22;2.05;;;7.40;92.40;;;;;;5077043;28;20402;-88
2022/12/06 11:44:21;;;;;;;3.05;1.85;;;7.50;92.40;;;;;;5067291;28;20426;-89
2022/12/06 11:46:58;;;;;;;3.78;1.52;;;7.50;92.60;;;;;;5067634;28;21111;-91
2022/12/06 11:49:35;;;;;;;3.35;1.88;;;7.50;92.30;;;;;;5083343;28;20499;-88
2022/12/06 11:52:23;;;;;;;3.17;1.47;;;7.50;92.20;;;;;;5089183;28;20418;-88
2022/12/06 11:54:58;;;;;;;3.92;1.70;;;7.50;92.30;;;;;;5090705;28;20491;-88
2022/12/06 11:58:06;;;;;;;4.50;1.67;;;7.40;92.70;;;;;;5079903;28;20472;-88
2022/12/06 12:00:31;;;;;;;4.32;1.40;;;7.40;92.70;;;;;;5089464;28;20416;-88
2022/12/06 12:02:57;;;;;;;4.63;1.80;;;7.40;92.70;;;;;;5087922;28;20433;-90
2022/12/06 12:05:37;;;;;;;4.57;1.50;;;7.40;92.90;;;;;;5070323;28;20406;-88
2022/12/06 12:08:17;;;;;;;3.97;1.73;;;7.40;92.80;;;;;;5069746;28;20405;-87
2022/12/06 12:10:45;;;;;;;5.72;1.58;;;7.60;92.80;;;;;;5070675;28;20413;-88
2022/12/06 12:16:00;;;;;;;5.53;1.70;;;7.40;92.50;;;;;;5087698;28;20405;-90
2022/12/06 12:18:30;;;;;;;3.97;1.27;;;7.50;92.80;;;;;;5087170;28;20424;-87
2022/12/06 12:20:58;;;;;;;4.72;1.33;;;7.50;92.70;;;;;;5070155;28;20749;-89
2022/12/06 12:23:35;;;;;;;6.00;2.10;;;7.50;92.80;;;;;;5071127;28;20440;-90
2022/12/06 12:26:09;;;;;;;4.22;1.67;;;7.50;92.90;;;;;;5086259;28;20418;-87
2022/12/06 12:28:37;;;;;;;5.00;1.92;;;7.60;92.80;;;;;;5070473;28;20402;-87
2022/12/06 12:31:23;;;;;;;5.18;1.23;;;7.60;92.90;;;;;;5086546;28;21031;-88
2022/12/06 12:34:19;;;;;;;4.57;1.70;;;7.70;92.70;;;;;;5069715;28;20424;-88
2022/12/06 12:36:51;;;;;;;4.10;1.55;;;7.60;92.90;;;;;;5070273;28;20408;-89
2022/12/06 12:39:37;;;;;;;5.20;1.30;;;7.60;93.00;;;;;;5086614;28;20465;-89
2022/12/06 12:42:03;;;;;;;3.10;1.20;;;7.70;92.80;;;;;;5087546;28;20478;-89
2022/12/06 12:44:36;;;;;;;4.68;0.90;;;7.70;92.80;;;;;;5070341;28;20472;-88
2022/12/06 12:47:05;;;;;;;3.60;0.90;;;7.70;92.50;;;;;;5086511;28;20530;-89
2022/12/06 12:49:37;;;;;;;3.30;0.95;;;7.70;92.70;;;;;;5070637;28;20961;-88
2022/12/06 12:52:36;;;;;;;3.22;0.63;;;7.70;92.60;;;;;;5069268;28;20417;-87
2022/12/06 12:55:19;;;;;;;2.55;0.60;;;7.70;92.30;;;;;;5070185;28;20413;-87
2022/12/06 12:57:54;;;;;;;3.10;0.70;;;7.60;92.40;;;;;;5086921;28;20885;-88
2022/12/06 13:00:27;;;;;;;3.45;0.60;;;7.60;92.60;;;;;;5085767;28;20445;-89
2022/12/06 13:03:05;;;;;;;2.70;0.50;;;7.60;93.10;;;;;;5069223;28;20471;-89
2022/12/06 13:05:33;;;;;;;2.70;0.60;;;7.60;92.80;;;;;;5068879;28;20398;-88
2022/12/06 13:08:10;;;;;;;4.03;0.70;;;7.60;92.70;;;;;;5070048;28;21011;-88
2022/12/06 13:10:38;;;;;;;2.33;0.50;;;7.50;92.80;;;;;;5070172;28;20471;-88
2022/12/06 13:13:17;;;;;;;3.17;0.55;;;7.50;92.80;;;;;;5068852;28;20421;-89
2022/12/06 13:15:46;;;;;;;2.67;0.70;;;7.40;93.00;;;;;;5086984;28;20410;-88
2022/12/06 13:18:29;;;;;;;4.57;0.50;;;7.50;93.10;;;;;;5085612;28;20414;-87
2022/12/06 13:20:59;;;;;;;3.03;0.60;;;7.50;93.30;;;;;;5086326;28;20417;-88
2022/12/06 13:23:33;;;;;;;1.70;0.52;;;7.60;93.50;;;;;;5069308;28;20932;-88
2022/12/06 13:26:26;;;;;;;2.22;0.52;;;7.70;93.30;;;;;;5068263;28;20447;-88
2022/12/06 13:29:12;;;;;;;3.13;0.50;;;7.80;93.20;;;;;;5069469;28;20414;-88
2022/12/06 13:31:39;;;;;;;2.90;0.40;;;7.80;92.80;;;;;;5068427;28;20453;-88
2022/12/06 13:34:23;;;;;;;3.00;0.40;;;7.90;93.00;;;;;;5085857;28;20437;-89
2022/12/06 13:36:51;;;;;;;2.45;0.50;;;8.00;92.80;;;;;;5086352;28;20406;-89
2022/12/06 13:39:37;;;;;;;3.33;0.50;;;8.10;92.80;;;;;;5085733;28;20878;-89
2022/12/06 13:42:29;;;;;;;2.00;0.47;;;8.00;92.70;;;;;;5071915;28;20438;-90
2022/12/06 13:44:59;;;;;;;1.85;0.40;;;8.10;92.80;;;;;;5088885;28;20925;-89
2022/12/06 13:47:27;;;;;;;3.10;0.60;;;8.20;92.70;;;;;;5088330;28;20405;-89